Yost Woods, Indiana
Current Conditions -  °F | °C
As of 6:54 PM on Friday 21 Nov 2014 (Local Time) from KFWA Reporting Station
Few Clouds Few Clouds  
Wind Chill: 11°   Ceiling: Unl
Heat Index: 21°   Visibility: 10mi
Dew Point: 12°   Wind: 8mph
Humidity: 68%   Direction: 130°SE
Pressure: 30.4"   Gusts: NA
Location:  40.8317°N, 84.9398°W
Report Text: KFWA 212354Z 13007KT 10SM FEW250 M06/M11 A3040 RMK AO2 SLP311 T10611111 11022 21061 58009
Loading
Personal Weather Stations






























Interactive Weather Map New forecast layout! Learn more

10-Day Weather Forecast

Advertisements
Track Severe Weather on mobile